Time;durP1;ratioP1;P1;durP2;ratioP2;P2;SDS_P1;SDS_P2;PMS_P1;PMS_P2;Temp;Humidity;BMP_temperature;BMP_pressure;BME280_temperature;BME280_humidity;BME280_pressure;Samples;Min_cycle;Max_cycle;Signal;HPM_P1;HPM_P2
2020/12/26 00:01:18;;;;;;;16.42;9.45;;;;;;;1.21;80.61;100149.89;1723314;83;25866;-54
2020/12/26 00:03:45;;;;;;;16.12;10.00;;;;;;;1.23;80.57;100154.97;1723693;83;26101;-55
2020/12/26 00:06:20;;;;;;;15.98;10.63;;;;;;;1.24;80.57;100149.90;1723645;83;27412;-54
2020/12/26 00:08:47;;;;;;;15.55;9.50;;;;;;;1.25;80.54;100159.52;1723420;83;25772;-54
2020/12/26 00:11:16;;;;;;;16.23;10.70;;;;;;;1.25;80.56;100149.65;1723355;83;26266;-54
2020/12/26 00:13:44;;;;;;;14.10;8.88;;;;;;;1.25;80.54;100149.65;1722904;83;25680;-54
2020/12/26 00:16:14;;;;;;;15.75;9.78;;;;;;;1.25;80.47;100157.64;1722844;83;25813;-53
2020/12/26 00:18:42;;;;;;;18.27;9.65;;;;;;;1.27;80.56;100160.06;1724359;83;25780;-53
2020/12/26 00:21:14;;;;;;;15.00;9.88;;;;;;;1.26;80.54;100155.78;1726038;83;25835;-54
2020/12/26 00:23:41;;;;;;;14.90;9.18;;;;;;;1.27;80.52;100153.40;1726348;83;25743;-54
2020/12/26 00:26:08;;;;;;;17.45;10.15;;;;;;;1.27;80.57;100154.73;1726238;83;25704;-53
2020/12/26 00:28:35;;;;;;;13.30;9.28;;;;;;;1.27;80.60;100158.19;1726219;82;25764;-55
2020/12/26 00:31:03;;;;;;;14.10;9.58;;;;;;;1.27;80.50;100156.06;1726249;82;25779;-55
2020/12/26 00:33:32;;;;;;;13.15;8.98;;;;;;;1.27;80.45;100148.07;1725825;82;25826;-54
2020/12/26 00:36:01;;;;;;;13.88;8.45;;;;;;;1.26;80.37;100140.62;1726119;82;25660;-54
2020/12/26 00:38:28;;;;;;;14.75;9.03;;;;;;;1.26;80.17;100141.13;1726062;82;26326;-55
2020/12/26 00:40:54;;;;;;;15.75;9.38;;;;;;;1.25;80.14;100149.65;1725679;82;25794;-53
2020/12/26 00:43:21;;;;;;;13.48;9.00;;;;;;;1.24;80.05;100149.90;1726102;82;25729;-54
2020/12/26 00:45:48;;;;;;;13.95;9.28;;;;;;;1.22;79.93;100144.02;1725890;83;25711;-54
2020/12/26 00:48:14;;;;;;;12.30;8.05;;;;;;;1.22;79.92;100145.35;1726404;83;25718;-55
2020/12/26 00:50:41;;;;;;;12.93;7.22;;;;;;;1.19;79.75;100146.67;1725755;83;25803;-55
2020/12/26 00:53:08;;;;;;;12.40;8.20;;;;;;;1.18;79.72;100153.05;1726482;83;25766;-54
2020/12/26 00:55:35;;;;;;;12.40;8.63;;;;;;;1.19;79.86;100149.84;1726065;82;25831;-53
2020/12/26 00:58:01;;;;;;;12.05;8.93;;;;;;;1.18;79.83;100161.04;1726413;83;25724;-51
2020/12/26 01:00:28;;;;;;;12.73;8.58;;;;;;;1.20;79.94;100160.80;1725988;83;26380;-54
2020/12/26 01:02:55;;;;;;;13.28;8.10;;;;;;;1.21;79.79;100155.72;1726285;83;25597;-52
2020/12/26 01:05:22;;;;;;;11.85;8.05;;;;;;;1.19;79.80;100152.51;1725941;82;25771;-55
2020/12/26 01:07:49;;;;;;;10.98;7.67;;;;;;;1.19;79.84;100155.17;1726206;82;25767;-53
2020/12/26 01:10:15;;;;;;;12.55;8.05;;;;;;;1.18;79.87;100153.05;1726045;82;25771;-52
2020/12/26 01:12:42;;;;;;;11.30;7.47;;;;;;;1.14;79.94;100155.91;1726509;83;25609;-53
2020/12/26 01:15:09;;;;;;;13.13;8.43;;;;;;;1.12;80.06;100150.03;1736085;82;25741;-53
2020/12/26 01:17:36;;;;;;;13.20;8.00;;;;;;;1.11;80.24;100146.58;1744118;82;25803;-53
2020/12/26 01:20:04;;;;;;;14.03;8.73;;;;;;;1.10;80.38;100146.28;1743062;82;27263;-54
2020/12/26 01:22:31;;;;;;;16.57;8.75;;;;;;;1.09;80.51;100154.02;1743351;82;25738;-53
2020/12/26 01:24:57;;;;;;;17.25;10.60;;;;;;;1.09;80.62;100166.52;1742876;82;25582;-50
2020/12/26 01:27:24;;;;;;;17.07;11.35;;;;;;;1.08;80.86;100162.26;1743484;82;25750;-53
2020/12/26 01:29:50;;;;;;;15.50;9.63;;;;;;;1.04;80.82;100155.80;1743023;82;26067;-52
2020/12/26 01:32:17;;;;;;;17.55;9.80;;;;;;;1.00;80.79;100157.36;1743278;82;26164;-51
2020/12/26 01:34:44;;;;;;;25.20;12.37;;;;;;;0.96;80.87;100160.25;1743308;82;25608;-52
2020/12/26 01:37:10;;;;;;;17.42;11.30;;;;;;;0.93;80.94;100157.55;1743295;82;25664;-52
2020/12/26 01:39:37;;;;;;;21.95;12.93;;;;;;;0.90;81.04;100162.86;1743156;82;25757;-54
2020/12/26 01:42:03;;;;;;;20.95;11.05;;;;;;;0.89;81.12;100157.23;1743282;82;25711;-53
2020/12/26 01:44:30;;;;;;;18.90;11.33;;;;;;;0.85;81.13;100156.14;1743133;82;25705;-52
2020/12/26 01:46:57;;;;;;;12.53;9.13;;;;;;;0.81;81.17;100152.34;1743489;82;26268;-51
2020/12/26 01:49:24;;;;;;;11.78;7.85;;;;;;;0.77;81.20;100155.23;1743029;82;25752;-52
2020/12/26 01:51:51;;;;;;;11.68;7.45;;;;;;;0.72;81.19;100157.83;1743247;82;25599;-50
2020/12/26 01:54:18;;;;;;;10.82;6.87;;;;;;;0.68;81.27;100172.16;1743142;82;25936;-53
2020/12/26 01:56:48;;;;;;;13.00;6.78;;;;;;;0.65;81.32;100165.19;1743490;82;28054;-48
2020/12/26 01:59:15;;;;;;;13.55;7.47;;;;;;;0.61;81.33;100159.53;1743178;82;25727;-53
2020/12/26 02:01:43;;;;;;;10.30;7.55;;;;;;;0.58;81.35;100168.03;1743337;82;25866;-50
2020/12/26 02:04:12;;;;;;;10.20;6.50;;;;;;;0.55;81.36;100163.19;1743176;82;26524;-53
2020/12/26 02:06:52;;;;;;;11.68;7.33;;;;;;;0.51;81.37;100166.05;1743189;82;25734;-53
2020/12/26 02:09:20;;;;;;;11.20;6.80;;;;;;;0.47;81.31;100176.37;1754397;81;25758;-52
2020/12/26 02:11:46;;;;;;;12.95;7.10;;;;;;;0.42;81.25;100166.20;1735007;82;26429;-53
2020/12/26 02:14:13;;;;;;;8.73;5.80;;;;;;;0.39;81.21;100172.00;1750414;79;25743;-52
2020/12/26 02:16:46;;;;;;;8.05;6.03;;;;;;;0.32;81.11;100165.52;1743655;82;25762;-53
2020/12/26 02:19:16;;;;;;;11.40;7.25;;;;;;;0.26;81.09;100171.30;1743234;80;25631;-51
2020/12/26 02:21:43;;;;;;;9.13;6.55;;;;;;;0.23;81.15;100178.96;1742157;82;25790;-53
2020/12/26 02:24:11;;;;;;;8.85;5.50;;;;;;;0.18;81.26;100172.49;1742044;82;25724;-53
2020/12/26 02:26:38;;;;;;;8.38;5.92;;;;;;;0.14;81.31;100178.56;1742520;82;26327;-49
2020/12/26 02:29:06;;;;;;;8.23;5.47;;;;;;;0.09;81.40;100180.61;1742335;82;25867;-51
2020/12/26 02:31:33;;;;;;;8.13;5.70;;;;;;;0.06;81.43;100186.94;1742520;82;25615;-52
2020/12/26 02:34:01;;;;;;;6.80;5.42;;;;;;;0.04;81.54;100189.05;1742342;82;26324;-50
2020/12/26 02:36:28;;;;;;;5.47;4.30;;;;;;;0.02;81.64;100192.44;1742499;82;25864;-51
2020/12/26 02:38:55;;;;;;;6.37;5.05;;;;;;;0.01;81.63;100188.19;1742460;82;25691;-49
2020/12/26 02:41:21;;;;;;;6.28;3.98;;;;;;;-0.02;81.61;100192.95;1742242;82;26366;-53
2020/12/26 02:43:48;;;;;;;4.50;3.60;;;;;;;-0.05;81.55;100182.78;1742586;82;26259;-50
2020/12/26 02:46:14;;;;;;;4.25;3.52;;;;;;;-0.09;81.53;100192.80;1742276;82;26191;-53
2020/12/26 02:48:41;;;;;;;5.20;3.65;;;;;;;-0.13;81.59;100187.16;1742488;82;26471;-49
2020/12/26 02:51:08;;;;;;;6.05;4.62;;;;;;;-0.12;81.67;100191.95;1742276;82;25628;-53
2020/12/26 02:53:34;;;;;;;6.05;4.87;;;;;;;-0.13;81.77;100187.70;1742491;82;25666;-52
2020/12/26 02:56:03;;;;;;;5.67;4.30;;;;;;;-0.13;81.88;100187.16;1763330;80;25763;-52
2020/12/26 02:58:30;;;;;;;6.87;5.00;;;;;;;-0.13;81.94;100195.67;1762987;81;26165;-52
2020/12/26 03:00:57;;;;;;;6.67;4.67;;;;;;;-0.12;81.95;100197.27;1787853;80;25841;-49
2020/12/26 03:03:24;;;;;;;9.35;5.58;;;;;;;-0.13;81.97;100197.80;1787896;80;26396;-53
2020/12/26 03:05:50;;;;;;;6.85;5.15;;;;;;;-0.13;82.10;100193.02;1787885;80;26455;-52
2020/12/26 03:08:17;;;;;;;6.55;5.12;;;;;;;-0.13;81.97;100195.67;1787927;80;25642;-51
2020/12/26 03:10:43;;;;;;;6.87;4.80;;;;;;;-0.13;82.05;100196.47;1787715;80;26136;-49
2020/12/26 03:13:10;;;;;;;5.97;5.35;;;;;;;-0.12;82.12;100202.59;1788104;80;26439;-50
2020/12/26 03:15:36;;;;;;;6.90;5.22;;;;;;;-0.10;82.14;100202.64;1768369;80;25649;-53
2020/12/26 03:18:04;;;;;;;7.17;5.33;;;;;;;-0.10;82.19;100206.63;1761670;81;25616;-52
2020/12/26 03:20:30;;;;;;;7.37;4.95;;;;;;;-0.08;82.22;100203.73;1735656;81;25723;-50
2020/12/26 03:22:57;;;;;;;6.05;4.58;;;;;;;-0.07;82.24;100207.48;1761380;81;26110;-51
2020/12/26 03:25:24;;;;;;;6.37;5.03;;;;;;;-0.07;82.28;100198.19;1760797;81;25735;-53
2020/12/26 03:27:51;;;;;;;6.90;5.50;;;;;;;-0.07;82.34;100200.84;1761391;81;25704;-51
2020/12/26 03:30:18;;;;;;;6.40;4.42;;;;;;;-0.06;82.35;100207.75;1760956;81;25620;-53
2020/12/26 03:32:44;;;;;;;7.70;5.00;;;;;;;-0.07;82.29;100210.15;1761200;81;25572;-52
2020/12/26 03:35:11;;;;;;;10.18;5.72;;;;;;;-0.06;82.37;100205.09;1760921;81;26329;-53
2020/12/26 03:37:38;;;;;;;8.33;5.72;;;;;;;-0.06;82.41;100202.97;1761075;81;25718;-52
2020/12/26 03:40:08;;;;;;;8.10;6.20;;;;;;;-0.05;82.43;100207.22;1761178;81;25801;-53
2020/12/26 03:42:35;;;;;;;8.80;5.58;;;;;;;-0.04;82.38;100208.84;1761488;81;25711;-51
2020/12/26 03:45:03;;;;;;;9.68;6.65;;;;;;;-0.02;82.50;100209.41;1761056;81;25764;-51
2020/12/26 03:47:29;;;;;;;9.80;6.62;;;;;;;-0.02;82.39;100211.56;1761535;81;26645;-52
2020/12/26 03:49:56;;;;;;;9.48;6.90;;;;;;;-0.01;82.45;100206.51;1760904;81;25755;-52
2020/12/26 03:52:23;;;;;;;12.58;6.83;;;;;;;0.01;82.36;100213.45;1761488;81;25639;-51
2020/12/26 03:54:50;;;;;;;10.63;6.55;;;;;;;0.01;82.39;100217.44;1760908;81;25599;-52
2020/12/26 03:57:16;;;;;;;9.05;6.00;;;;;;;0.02;82.45;100228.34;1761525;81;25639;-51
2020/12/26 03:59:43;;;;;;;10.08;5.95;;;;;;;0.00;82.42;100232.59;1761007;81;25899;-51
2020/12/26 04:02:10;;;;;;;7.75;6.20;;;;;;;0.02;82.49;100223.85;1761263;81;25648;-52
2020/12/26 04:04:36;;;;;;;8.53;5.97;;;;;;;0.03;82.46;100228.11;1761103;81;25834;-53
2020/12/26 04:07:04;;;;;;;7.65;5.30;;;;;;;0.04;82.46;100224.41;1761157;81;25709;-52
2020/12/26 04:09:31;;;;;;;10.00;6.55;;;;;;;0.07;82.48;100232.42;1761269;81;26313;-51
2020/12/26 04:11:57;;;;;;;9.70;5.75;;;;;;;0.07;82.46;100227.10;1761227;81;25891;-52
2020/12/26 04:14:26;;;;;;;8.03;5.55;;;;;;;0.07;82.36;100232.42;1760139;78;25745;-51
2020/12/26 04:16:58;;;;;;;9.75;6.60;;;;;;;0.07;82.39;100235.91;1761437;81;25716;-54
2020/12/26 04:19:27;;;;;;;11.70;6.78;;;;;;;0.07;82.47;100235.91;1760175;81;25756;-52
2020/12/26 04:21:54;;;;;;;10.83;7.17;;;;;;;0.08;82.39;100244.69;1758156;81;25653;-52
2020/12/26 04:24:21;;;;;;;10.35;6.60;;;;;;;0.10;82.34;100237.27;1758010;81;26014;-51
2020/12/26 04:26:48;;;;;;;9.80;5.97;;;;;;;0.11;82.45;100243.67;1758316;81;25786;-53
2020/12/26 04:29:15;;;;;;;9.23;6.50;;;;;;;0.14;82.34;100239.74;1758224;81;25699;-52
2020/12/26 04:31:41;;;;;;;8.58;6.62;;;;;;;0.13;82.32;100228.81;1758434;81;25692;-51
2020/12/26 04:34:08;;;;;;;12.10;7.47;;;;;;;0.15;82.34;100236.84;1758061;81;26460;-52
2020/12/26 04:36:35;;;;;;;9.53;6.58;;;;;;;0.17;82.33;100231.26;1758086;81;25924;-52
2020/12/26 04:39:02;;;;;;;10.30;6.08;;;;;;;0.17;82.22;100232.59;1758072;81;25812;-50
2020/12/26 04:41:28;;;;;;;10.25;6.47;;;;;;;0.18;82.24;100236.87;1757817;81;25856;-51
2020/12/26 04:43:55;;;;;;;9.58;6.55;;;;;;;0.19;82.15;100241.16;1758205;81;25908;-53
2020/12/26 04:46:26;;;;;;;9.60;6.17;;;;;;;0.17;82.10;100251.20;1758099;81;26284;-52
2020/12/26 04:49:06;;;;;;;11.35;6.87;;;;;;;0.17;82.04;100245.89;1758215;81;26293;-52
2020/12/26 04:51:35;;;;;;;9.90;6.28;;;;;;;0.16;82.12;100241.09;1758328;81;25627;-51
2020/12/26 04:54:26;;;;;;;10.63;6.63;;;;;;;0.16;82.13;100240.30;1757906;81;26469;-51
2020/12/26 04:56:55;;;;;;;11.70;7.33;;;;;;;0.18;82.14;100251.50;1757852;81;25666;-52
2020/12/26 04:59:23;;;;;;;13.35;7.20;;;;;;;0.19;82.18;100246.48;1757927;81;25639;-52
2020/12/26 05:01:51;;;;;;;11.65;6.60;;;;;;;0.20;82.21;100240.09;1758197;81;26361;-50
2020/12/26 05:04:18;;;;;;;7.85;6.28;;;;;;;0.21;82.25;100240.38;1757859;81;25840;-52
2020/12/26 05:06:51;;;;;;;12.33;7.97;;;;;;;0.21;82.13;100241.72;1758076;81;26378;-53
2020/12/26 05:09:21;;;;;;;14.47;8.90;;;;;;;0.22;82.13;100231.34;1757977;81;25786;-51
2020/12/26 05:12:00;;;;;;;13.62;8.30;;;;;;;0.23;82.13;100238.28;1758302;81;25777;-53
2020/12/26 05:14:30;;;;;;;10.68;7.80;;;;;;;0.24;81.89;100243.07;1752575;78;25929;-52
2020/12/26 05:16:57;;;;;;;11.93;9.03;;;;;;;0.21;81.84;100242.25;1758234;81;25710;-52
2020/12/26 05:19:24;;;;;;;14.70;9.20;;;;;;;0.21;81.80;100251.56;1758157;81;25655;-53
2020/12/26 05:21:57;;;;;;;16.25;9.48;;;;;;;0.18;81.86;100248.31;1756314;81;25746;-52
2020/12/26 05:24:24;;;;;;;17.73;10.25;;;;;;;0.20;81.89;100244.08;1724527;83;25684;-52
2020/12/26 05:26:53;;;;;;;15.35;10.82;;;;;;;0.22;81.93;100247.84;1756093;81;27049;-51
2020/12/26 05:29:23;;;;;;;16.23;10.40;;;;;;;0.22;81.93;100247.30;1756217;81;25669;-53
2020/12/26 05:31:58;;;;;;;16.57;10.05;;;;;;;0.22;81.87;100249.16;1754810;81;25777;-52
2020/12/26 05:34:38;;;;;;;18.10;10.18;;;;;;;0.23;81.84;100250.25;1733100;80;25738;-53
2020/12/26 05:37:06;;;;;;;16.23;10.48;;;;;;;0.26;81.82;100259.62;1722125;81;25675;-52
2020/12/26 05:39:36;;;;;;;16.73;10.03;;;;;;;0.27;81.74;100253.23;1721324;83;25777;-52
2020/12/26 05:42:05;;;;;;;17.90;10.90;;;;;;;0.26;81.71;100253.77;1721999;83;25584;-53
2020/12/26 05:44:35;;;;;;;17.30;10.82;;;;;;;0.28;81.72;100260.19;1722481;83;26095;-53
2020/12/26 05:47:05;;;;;;;13.80;10.28;;;;;;;0.28;81.61;100262.84;1722534;83;25747;-53
2020/12/26 05:49:38;;;;;;;15.43;10.03;;;;;;;0.27;81.64;100267.34;1722187;82;25777;-54
2020/12/26 05:52:11;;;;;;;16.52;10.03;;;;;;;0.27;81.55;100267.34;1720503;82;26235;-53
2020/12/26 05:54:39;;;;;;;17.52;10.43;;;;;;;0.28;81.63;100262.84;1719919;83;25664;-52
2020/12/26 05:57:13;;;;;;;16.57;10.82;;;;;;;0.28;81.63;100258.85;1720244;82;25801;-53
2020/12/26 05:59:43;;;;;;;15.90;9.98;;;;;;;0.28;81.67;100260.19;1721810;83;25900;-52
2020/12/26 06:02:26;;;;;;;14.75;9.60;;;;;;;0.30;81.66;100262.87;1718203;82;25816;-54
2020/12/26 06:05:03;;;;;;;13.83;8.95;;;;;;;0.32;81.72;100265.30;1718077;83;25751;-51
2020/12/26 06:07:33;;;;;;;12.55;8.28;;;;;;;0.31;81.67;100260.50;1719111;83;25682;-53
2020/12/26 06:10:05;;;;;;;13.18;8.13;;;;;;;0.31;81.72;100263.16;1719906;83;25723;-52
2020/12/26 06:12:32;;;;;;;13.68;8.73;;;;;;;0.34;81.78;100271.17;1722350;83;25749;-51
2020/12/26 06:15:00;;;;;;;13.03;8.23;;;;;;;0.33;81.78;100274.90;1721958;83;25892;-53
2020/12/26 06:17:32;;;;;;;10.98;7.40;;;;;;;0.33;81.84;100277.56;1722650;83;26243;-51
2020/12/26 06:20:08;;;;;;;13.58;8.13;;;;;;;0.33;81.86;100275.70;1721846;82;25681;-53
2020/12/26 06:22:50;;;;;;;11.90;7.33;;;;;;;0.34;81.90;100275.16;1726156;82;25686;-54
2020/12/26 06:25:21;;;;;;;10.55;7.25;;;;;;;0.34;81.90;100279.16;1715988;83;25697;-54
2020/12/26 06:28:01;;;;;;;11.95;7.40;;;;;;;0.35;81.95;100278.92;1726196;82;25611;-53
2020/12/26 06:30:29;;;;;;;11.28;6.95;;;;;;;0.37;81.93;100286.66;1725522;83;25953;-53
2020/12/26 06:32:57;;;;;;;12.03;7.90;;;;;;;0.35;81.96;100289.56;1726085;83;25599;-55
2020/12/26 06:35:24;;;;;;;12.25;8.18;;;;;;;0.36;82.12;100289.86;1725706;83;26379;-54
2020/12/26 06:38:29;;;;;;;11.70;7.87;;;;;;;0.36;82.05;100291.19;1726153;83;25817;-52
2020/12/26 06:41:02;;;;;;;12.20;7.92;;;;;;;0.35;82.13;100294.88;1725589;83;25764;-52
2020/12/26 06:43:52;;;;;;;10.18;7.25;;;;;;;0.35;82.19;100294.88;1725972;82;26435;-51
2020/12/26 06:46:28;;;;;;;12.10;7.83;;;;;;;0.36;82.25;100296.51;1725079;83;25785;-55
2020/12/26 06:48:58;;;;;;;12.65;8.53;;;;;;;0.39;82.32;100302.39;1725822;82;25773;-52
2020/12/26 06:51:36;;;;;;;13.15;8.80;;;;;;;0.41;82.44;100300.29;1725907;82;25721;-55
2020/12/26 06:54:07;;;;;;;11.80;8.50;;;;;;;0.40;82.33;100300.82;1711941;83;25797;-54
2020/12/26 06:56:39;;;;;;;14.25;9.65;;;;;;;0.43;82.33;100302.21;1710186;83;26891;-54
2020/12/26 06:59:11;;;;;;;16.60;10.53;;;;;;;0.44;82.33;100309.92;1710090;83;25628;-52
2020/12/26 07:01:46;;;;;;;18.48;11.20;;;;;;;0.45;82.36;100304.90;1710138;83;25767;-52
2020/12/26 07:06:55;;;;;;;27.37;14.10;;;;;;;0.56;82.36;100316.51;1886492;76;32870;-53
2020/12/26 07:09:44;;;;;;;20.40;11.80;;;;;;;0.52;82.30;100323.38;1857113;77;25647;-54
2020/12/26 07:12:13;;;;;;;18.10;11.08;;;;;;;0.53;82.28;100316.48;1857349;77;26650;-52
2020/12/26 07:14:54;;;;;;;16.73;11.25;;;;;;;0.58;82.24;100314.94;1856881;77;26369;-53
2020/12/26 07:20:01;;;;;;;18.12;11.28;;;;;;;0.66;81.98;100326.52;1886183;76;32841;-53
2020/12/26 07:22:33;;;;;;;19.35;12.20;;;;;;;0.63;82.00;100327.00;1857210;77;26373;-53
2020/12/26 07:25:06;;;;;;;18.85;11.93;;;;;;;0.65;81.92;100331.05;1857030;77;27253;-54
2020/12/26 07:27:39;;;;;;;16.52;11.12;;;;;;;0.65;81.74;100333.71;1857046;77;25871;-55
2020/12/26 07:30:13;;;;;;;17.27;11.12;;;;;;;0.66;81.53;100331.31;1857092;77;25667;-55
2020/12/26 07:32:47;;;;;;;19.32;13.00;;;;;;;0.66;81.56;100335.30;1857285;77;25696;-52
2020/12/26 07:35:25;;;;;;;20.08;11.80;;;;;;;0.68;81.62;100341.72;1857153;77;25707;-55
2020/12/26 07:38:09;;;;;;;19.67;11.85;;;;;;;0.70;81.62;100348.44;1857437;77;26355;-52
2020/12/26 07:40:43;;;;;;;16.40;11.12;;;;;;;0.72;81.56;100341.54;1856702;77;25703;-52
2020/12/26 07:43:14;;;;;;;16.75;10.43;;;;;;;0.76;81.40;100349.84;1857365;77;25672;-53
2020/12/26 07:45:44;;;;;;;19.85;11.75;;;;;;;0.74;81.32;100352.75;1856879;77;25639;-54
2020/12/26 07:48:11;;;;;;;13.78;9.68;;;;;;;0.77;81.61;100359.43;1857421;77;25668;-52
2020/12/26 07:50:40;;;;;;;16.62;11.38;;;;;;;0.78;81.30;100361.86;1856770;77;25890;-53
2020/12/26 07:53:10;;;;;;;16.20;9.57;;;;;;;0.78;81.42;100359.19;1857418;77;25710;-53
2020/12/26 07:55:37;;;;;;;15.08;9.63;;;;;;;0.80;81.28;100369.09;1857158;76;25636;-54
2020/12/26 07:58:13;;;;;;;13.55;9.58;;;;;;;0.80;81.16;100371.77;1857113;77;25685;-53
2020/12/26 08:00:42;;;;;;;13.08;8.78;;;;;;;0.80;81.15;100368.27;1857078;77;25612;-54
2020/12/26 08:03:12;;;;;;;13.83;9.45;;;;;;;0.79;81.21;100366.14;1857329;77;25934;-54
2020/12/26 08:05:41;;;;;;;12.00;9.40;;;;;;;0.80;81.33;100372.27;1857225;77;25620;-54
2020/12/26 08:08:20;;;;;;;14.50;8.85;;;;;;;0.81;81.38;100365.91;1857299;77;25709;-53
2020/12/26 08:10:46;;;;;;;14.50;8.70;;;;;;;0.83;81.35;100373.12;1856660;77;25931;-54
2020/12/26 08:13:15;;;;;;;13.75;9.00;;;;;;;0.84;81.36;100380.88;1857059;77;25723;-54
2020/12/26 08:15:43;;;;;;;15.48;9.58;;;;;;;0.87;81.48;100379.56;1810735;77;30695;-53
2020/12/26 08:18:11;;;;;;;10.98;8.63;;;;;;;0.89;81.42;100384.15;1756442;81;25705;-54
2020/12/26 08:20:38;;;;;;;12.73;8.23;;;;;;;0.89;81.29;100375.63;1756141;81;25662;-53
2020/12/26 08:23:08;;;;;;;16.87;9.95;;;;;;;0.89;81.10;100376.95;1756716;81;25822;-53
2020/12/26 08:25:35;;;;;;;16.93;10.95;;;;;;;0.90;81.12;100385.75;1756006;81;25730;-54
2020/12/26 08:28:02;;;;;;;13.68;8.63;;;;;;;0.93;80.67;100402.58;1756367;81;26310;-55
2020/12/26 08:30:32;;;;;;;11.25;7.45;;;;;;;0.93;80.67;100391.92;1755677;81;25665;-55
2020/12/26 08:33:22;;;;;;;10.68;7.65;;;;;;;0.92;80.64;100396.98;1756151;81;26292;-56
2020/12/26 08:35:58;;;;;;;;;;;;;;;0.92;80.27;100395.66;1757358;81;25240;-54
2020/12/26 08:38:29;;;;;;;10.85;7.87;;;;;;;0.92;80.56;100407.11;1755528;81;25665;-54
2020/12/26 08:40:58;;;;;;;8.13;6.58;;;;;;;0.93;80.54;100416.70;1755569;81;25843;-55
2020/12/26 08:43:25;;;;;;;11.38;7.50;;;;;;;0.95;80.19;100419.66;1755432;81;25685;-55
2020/12/26 08:45:52;;;;;;;9.63;6.40;;;;;;;0.97;79.91;100420.21;1755878;81;25684;-54
2020/12/26 08:48:23;;;;;;;9.38;6.97;;;;;;;0.97;80.15;100421.55;1755958;81;25645;-54
2020/12/26 08:50:56;;;;;;;8.05;6.72;;;;;;;0.98;80.15;100423.17;1755917;81;25682;-54
2020/12/26 08:53:23;;;;;;;8.35;6.28;;;;;;;1.02;80.16;100426.95;1756059;81;25829;-54
2020/12/26 08:55:53;;;;;;;10.58;7.37;;;;;;;1.05;80.25;100426.48;1755796;81;25816;-54
2020/12/26 08:58:32;;;;;;;;;;;;;;;1.09;80.12;100438.25;1758706;81;25694;-55
2020/12/26 09:01:04;;;;;;;12.85;8.18;;;;;;;1.12;79.99;100433.77;1755847;81;26408;-54
2020/12/26 09:03:34;;;;;;;9.20;6.60;;;;;;;1.15;79.87;100435.16;1756238;81;25730;-55
2020/12/26 09:06:03;;;;;;;8.88;6.40;;;;;;;1.18;79.90;100436.02;1755724;81;32563;-54
2020/12/26 09:08:33;;;;;;;7.28;6.35;;;;;;;1.21;79.68;100445.66;1756219;81;25736;-56
2020/12/26 09:11:09;;;;;;;9.95;6.87;;;;;;;1.23;79.53;100448.09;1755552;81;25633;-56
2020/12/26 09:13:44;;;;;;;9.65;7.22;;;;;;;1.24;79.36;100442.52;1755854;81;25765;-55
2020/12/26 09:16:15;;;;;;;9.03;7.08;;;;;;;1.28;79.64;100449.50;1773681;80;25688;-54
2020/12/26 09:18:49;;;;;;;11.43;9.10;;;;;;;1.32;79.56;100452.48;1790605;79;26153;-54
2020/12/26 09:21:29;;;;;;;12.53;8.50;;;;;;;1.34;79.48;100458.38;1790882;79;25671;-53
2020/12/26 09:23:58;;;;;;;9.53;7.70;;;;;;;1.38;79.53;100456.81;1790532;80;25959;-51
2020/12/26 09:26:27;;;;;;;9.33;7.08;;;;;;;1.40;79.31;100462.20;1790751;79;25723;-52
2020/12/26 09:29:01;;;;;;;9.88;8.08;;;;;;;1.43;78.95;100463.56;1790787;79;26018;-51
2020/12/26 09:31:38;;;;;;;11.25;7.40;;;;;;;1.41;78.93;100467.80;1790924;79;25726;-51
2020/12/26 09:34:25;;;;;;;12.40;6.87;;;;;;;1.38;78.77;100470.98;1790571;79;25720;-52
2020/12/26 09:37:07;;;;;;;9.05;6.60;;;;;;;1.36;78.56;100470.92;1791042;79;26329;-51
2020/12/26 09:39:35;;;;;;;9.70;6.55;;;;;;;1.34;78.27;100474.36;1790618;79;25701;-54
2020/12/26 09:42:01;;;;;;;9.50;7.30;;;;;;;1.31;78.33;100475.64;1791126;80;25619;-54
2020/12/26 09:44:29;;;;;;;9.55;7.60;;;;;;;1.33;78.55;100469.56;1790966;80;26719;-51
2020/12/26 09:47:00;;;;;;;9.70;7.03;;;;;;;1.36;78.58;100473.59;1790666;79;25678;-54
2020/12/26 09:49:35;;;;;;;9.90;8.25;;;;;;;1.47;78.62;100476.70;1846772;76;34808;-58
2020/12/26 09:52:01;;;;;;;9.43;6.87;;;;;;;1.45;78.79;100467.61;1816841;78;25646;-55
2020/12/26 09:54:28;;;;;;;10.20;7.40;;;;;;;1.50;78.18;100472.22;1816522;78;26124;-54
2020/12/26 09:56:55;;;;;;;9.75;7.05;;;;;;;1.51;77.90;100474.35;1784788;78;25685;-53
2020/12/26 09:59:22;;;;;;;12.78;7.87;;;;;;;1.52;78.16;100477.31;1813941;77;26318;-54
2020/12/26 10:01:48;;;;;;;12.18;8.15;;;;;;;1.61;78.64;100483.83;1803689;79;25575;-57
2020/12/26 10:04:16;;;;;;;11.20;8.60;;;;;;;1.70;78.54;100484.22;1803498;79;25670;-53
2020/12/26 10:06:44;;;;;;;8.98;7.00;;;;;;;1.75;78.32;100481.09;1803934;79;26726;-52
2020/12/26 10:09:11;;;;;;;12.45;7.42;;;;;;;1.77;77.63;100480.84;1803291;79;25699;-55
2020/12/26 10:11:39;;;;;;;9.00;7.12;;;;;;;1.76;77.67;100485.39;1803934;79;25691;-53
2020/12/26 10:14:05;;;;;;;10.55;7.17;;;;;;;1.79;77.85;100483.56;1774291;79;25988;-53
2020/12/26 10:16:32;;;;;;;11.08;6.90;;;;;;;1.79;77.64;100488.91;1803828;79;25568;-53
2020/12/26 10:19:00;;;;;;;9.30;6.37;;;;;;;1.82;77.64;100499.59;1803760;79;26351;-53
2020/12/26 10:21:27;;;;;;;10.53;6.55;;;;;;;1.84;76.94;100487.64;1803561;79;25628;-54
2020/12/26 10:23:53;;;;;;;8.43;6.03;;;;;;;1.82;77.49;100484.41;1803693;79;26400;-54
2020/12/26 10:26:20;;;;;;;8.40;6.60;;;;;;;1.87;77.62;100491.66;1803468;79;25769;-53
2020/12/26 10:28:47;;;;;;;8.45;6.83;;;;;;;1.93;77.79;100489.35;1803798;79;25674;-53
2020/12/26 10:31:14;;;;;;;9.20;7.17;;;;;;;1.95;77.54;100490.44;1803518;79;26209;-52
2020/12/26 10:33:42;;;;;;;12.28;7.95;;;;;;;1.96;77.10;100487.53;1803541;79;25620;-53
2020/12/26 10:36:09;;;;;;;8.85;6.53;;;;;;;1.96;77.47;100488.03;1803699;79;25717;-54
2020/12/26 10:38:36;;;;;;;8.60;6.28;;;;;;;1.94;77.29;100490.98;1803407;79;25592;-52
2020/12/26 10:41:05;;;;;;;8.23;6.55;;;;;;;1.92;76.34;100486.92;1803798;79;25706;-53
2020/12/26 10:43:32;;;;;;;10.55;7.65;;;;;;;1.89;77.07;100483.41;1803690;79;26730;-54
2020/12/26 10:45:59;;;;;;;13.43;8.25;;;;;;;1.90;77.30;100481.83;1803531;79;25626;-55
2020/12/26 10:48:25;;;;;;;12.85;8.13;;;;;;;1.90;77.50;100475.70;1804929;79;25771;-53
2020/12/26 10:50:52;;;;;;;13.00;8.20;;;;;;;1.92;77.42;100473.59;1806532;79;25643;-52
2020/12/26 10:53:19;;;;;;;10.53;7.58;;;;;;;1.93;77.50;100474.67;1807039;79;25695;-53
2020/12/26 10:55:45;;;;;;;12.63;9.00;;;;;;;1.92;77.36;100474.92;1806766;79;26409;-53
2020/12/26 10:58:12;;;;;;;13.72;8.65;;;;;;;1.93;77.05;100475.22;1807052;79;26168;-54
2020/12/26 11:00:39;;;;;;;12.43;8.88;;;;;;;1.96;77.48;100476.03;1805999;79;26021;-56
2020/12/26 11:03:05;;;;;;;13.50;9.53;;;;;;;1.97;77.53;100486.99;1806235;79;25675;-55
2020/12/26 11:05:32;;;;;;;12.95;8.85;;;;;;;2.00;77.41;100487.84;1805961;79;25725;-55
2020/12/26 11:08:00;;;;;;;11.70;8.55;;;;;;;2.00;77.45;100485.17;1805763;79;27094;-53
2020/12/26 11:10:27;;;;;;;12.28;8.73;;;;;;;1.98;77.38;100490.75;1806007;79;25671;-54
2020/12/26 11:12:54;;;;;;;11.08;8.55;;;;;;;1.97;76.71;100491.80;1806279;79;25624;-54
2020/12/26 11:15:21;;;;;;;14.13;9.85;;;;;;;1.92;76.75;100486.92;1806031;79;25691;-54
2020/12/26 11:17:48;;;;;;;13.85;9.18;;;;;;;1.87;77.09;100487.66;1806425;79;25587;-53
2020/12/26 11:20:15;;;;;;;12.00;8.43;;;;;;;1.86;77.18;100496.20;1805841;79;26664;-53
2020/12/26 11:22:42;;;;;;;16.42;10.45;;;;;;;1.84;77.12;100497.51;1806552;79;25603;-55
2020/12/26 11:25:09;;;;;;;13.83;10.40;;;;;;;1.82;77.37;100499.09;1805954;79;25648;-50
2020/12/26 11:27:36;;;;;;;16.02;10.98;;;;;;;1.83;77.69;100492.68;1806416;79;26448;-54
2020/12/26 11:30:03;;;;;;;16.65;10.38;;;;;;;1.84;77.75;100492.97;1806008;79;25587;-53
2020/12/26 11:32:31;;;;;;;13.15;9.55;;;;;;;1.89;77.70;100504.75;1806383;79;25738;-52
2020/12/26 11:34:57;;;;;;;13.93;9.68;;;;;;;1.83;77.11;100502.55;1805913;79;25778;-54
2020/12/26 11:37:24;;;;;;;15.63;10.25;;;;;;;1.73;77.34;100496.53;1806180;79;25629;-53
2020/12/26 11:39:51;;;;;;;15.78;10.20;;;;;;;1.79;77.43;100506.23;1806018;79;25667;-54
2020/12/26 11:42:17;;;;;;;15.35;10.68;;;;;;;1.79;77.58;100499.56;1806094;79;25687;-52